sensor_id;sensor_type;location;lat;lon;timestamp;temperature;humidity
70676;DHT22;59069;52.242;20.900;2024-03-17T00:01:32;7.12;72.82
70676;DHT22;59069;52.242;20.900;2024-03-17T00:03:57;7.13;72.86
70676;DHT22;59069;52.242;20.900;2024-03-17T00:06:24;7.15;72.87
70676;DHT22;59069;52.242;20.900;2024-03-17T00:08:49;7.16;72.57
70676;DHT22;59069;52.242;20.900;2024-03-17T00:11:15;7.16;72.30
70676;DHT22;59069;52.242;20.900;2024-03-17T00:13:41;7.15;71.95
70676;DHT22;59069;52.242;20.900;2024-03-17T00:16:06;7.11;71.05
70676;DHT22;59069;52.242;20.900;2024-03-17T00:18:32;7.08;70.26
70676;DHT22;59069;52.242;20.900;2024-03-17T00:20:57;7.02;69.73
70676;DHT22;59069;52.242;20.900;2024-03-17T00:23:24;6.99;68.90
70676;DHT22;59069;52.242;20.900;2024-03-17T00:25:49;6.96;68.35
70676;DHT22;59069;52.242;20.900;2024-03-17T00:28:16;6.93;67.87
70676;DHT22;59069;52.242;20.900;2024-03-17T00:30:41;6.92;67.53
70676;DHT22;59069;52.242;20.900;2024-03-17T00:33:07;6.89;66.89
70676;DHT22;59069;52.242;20.900;2024-03-17T00:35:32;6.88;66.77
70676;DHT22;59069;52.242;20.900;2024-03-17T00:37:58;6.88;66.49
70676;DHT22;59069;52.242;20.900;2024-03-17T00:40:24;6.85;66.34
70676;DHT22;59069;52.242;20.900;2024-03-17T00:42:49;6.84;66.36
70676;DHT22;59069;52.242;20.900;2024-03-17T00:45:15;6.85;66.34
70676;DHT22;59069;52.242;20.900;2024-03-17T00:47:40;6.82;66.39
70676;DHT22;59069;52.242;20.900;2024-03-17T00:50:06;6.81;66.39
70676;DHT22;59069;52.242;20.900;2024-03-17T00:52:33;6.77;66.13
70676;DHT22;59069;52.242;20.900;2024-03-17T00:54:59;6.78;65.85
70676;DHT22;59069;52.242;20.900;2024-03-17T00:57:24;6.77;65.55
70676;DHT22;59069;52.242;20.900;2024-03-17T00:59:50;6.70;65.37
70676;DHT22;59069;52.242;20.900;2024-03-17T01:02:16;6.67;65.14
70676;DHT22;59069;52.242;20.900;2024-03-17T01:04:45;6.60;64.94
70676;DHT22;59069;52.242;20.900;2024-03-17T01:07:11;6.55;64.63
70676;DHT22;59069;52.242;20.900;2024-03-17T01:09:37;6.47;64.51
70676;DHT22;59069;52.242;20.900;2024-03-17T01:12:02;6.41;64.62
70676;DHT22;59069;52.242;20.900;2024-03-17T01:14:29;6.34;64.70
70676;DHT22;59069;52.242;20.900;2024-03-17T01:16:55;6.26;64.77
70676;DHT22;59069;52.242;20.900;2024-03-17T01:19:21;6.20;64.99
70676;DHT22;59069;52.242;20.900;2024-03-17T01:21:46;6.13;65.22
70676;DHT22;59069;52.242;20.900;2024-03-17T01:24:12;6.09;65.44
70676;DHT22;59069;52.242;20.900;2024-03-17T01:26:38;6.05;65.71
70676;DHT22;59069;52.242;20.900;2024-03-17T01:29:03;6.00;65.91
70676;DHT22;59069;52.242;20.900;2024-03-17T01:31:29;5.92;66.06
70676;DHT22;59069;52.242;20.900;2024-03-17T01:33:54;5.90;66.37
70676;DHT22;59069;52.242;20.900;2024-03-17T01:36:19;5.86;66.58
70676;DHT22;59069;52.242;20.900;2024-03-17T01:38:45;5.82;66.82
70676;DHT22;59069;52.242;20.900;2024-03-17T01:41:10;5.78;67.06
70676;DHT22;59069;52.242;20.900;2024-03-17T01:43:36;5.73;67.22
70676;DHT22;59069;52.242;20.900;2024-03-17T01:46:02;5.69;67.38
70676;DHT22;59069;52.242;20.900;2024-03-17T01:48:28;5.66;67.67
70676;DHT22;59069;52.242;20.900;2024-03-17T01:50:55;5.63;67.94
70676;DHT22;59069;52.242;20.900;2024-03-17T01:53:21;5.62;68.21
70676;DHT22;59069;52.242;20.900;2024-03-17T01:55:47;5.61;68.21
70676;DHT22;59069;52.242;20.900;2024-03-17T01:58:13;5.61;68.13
70676;DHT22;59069;52.242;20.900;2024-03-17T02:00:39;5.59;68.22
70676;DHT22;59069;52.242;20.900;2024-03-17T02:03:08;5.58;68.53
70676;DHT22;59069;52.242;20.900;2024-03-17T02:05:38;5.59;68.68
70676;DHT22;59069;52.242;20.900;2024-03-17T02:08:05;5.59;68.73
70676;DHT22;59069;52.242;20.900;2024-03-17T02:10:30;5.56;68.84
70676;DHT22;59069;52.242;20.900;2024-03-17T02:12:56;5.56;68.73
70676;DHT22;59069;52.242;20.900;2024-03-17T02:15:21;5.56;68.82
70676;DHT22;59069;52.242;20.900;2024-03-17T02:17:47;5.58;69.00
70676;DHT22;59069;52.242;20.900;2024-03-17T02:20:12;5.61;69.06
70676;DHT22;59069;52.242;20.900;2024-03-17T02:22:39;5.59;68.98
70676;DHT22;59069;52.242;20.900;2024-03-17T02:25:05;5.59;69.01
70676;DHT22;59069;52.242;20.900;2024-03-17T02:27:34;5.58;69.02
70676;DHT22;59069;52.242;20.900;2024-03-17T02:30:00;5.58;69.07
70676;DHT22;59069;52.242;20.900;2024-03-17T02:32:25;5.61;69.09
70676;DHT22;59069;52.242;20.900;2024-03-17T02:34:53;5.58;68.83
70676;DHT22;59069;52.242;20.900;2024-03-17T02:37:18;5.55;68.54
70676;DHT22;59069;52.242;20.900;2024-03-17T02:39:44;5.54;68.28
70676;DHT22;59069;52.242;20.900;2024-03-17T02:42:10;5.49;68.03
70676;DHT22;59069;52.242;20.900;2024-03-17T02:44:38;5.41;68.09
70676;DHT22;59069;52.242;20.900;2024-03-17T02:47:05;5.35;68.15
70676;DHT22;59069;52.242;20.900;2024-03-17T02:49:31;5.30;68.39
70676;DHT22;59069;52.242;20.900;2024-03-17T02:52:06;5.20;68.68
70676;DHT22;59069;52.242;20.900;2024-03-17T02:54:32;5.17;69.03
70676;DHT22;59069;52.242;20.900;2024-03-17T02:56:57;5.16;69.54
70676;DHT22;59069;52.242;20.900;2024-03-17T02:59:25;5.16;69.86
70676;DHT22;59069;52.242;20.900;2024-03-17T03:01:52;5.17;69.88
70676;DHT22;59069;52.242;20.900;2024-03-17T03:04:17;5.20;69.93
70676;DHT22;59069;52.242;20.900;2024-03-17T03:06:43;5.23;69.91
70676;DHT22;59069;52.242;20.900;2024-03-17T03:09:08;5.24;70.06
70676;DHT22;59069;52.242;20.900;2024-03-17T03:11:39;5.24;70.11
70676;DHT22;59069;52.242;20.900;2024-03-17T03:14:05;5.28;70.13
70676;DHT22;59069;52.242;20.900;2024-03-17T03:16:31;5.28;70.18
70676;DHT22;59069;52.242;20.900;2024-03-17T03:18:56;5.30;70.21
70676;DHT22;59069;52.242;20.900;2024-03-17T03:21:21;5.31;70.28
70676;DHT22;59069;52.242;20.900;2024-03-17T03:23:47;5.30;70.35
70676;DHT22;59069;52.242;20.900;2024-03-17T03:26:12;5.35;70.38
70676;DHT22;59069;52.242;20.900;2024-03-17T03:28:38;5.35;70.48
70676;DHT22;59069;52.242;20.900;2024-03-17T03:31:04;5.35;70.54
70676;DHT22;59069;52.242;20.900;2024-03-17T03:33:30;5.35;70.62
70676;DHT22;59069;52.242;20.900;2024-03-17T03:35:55;5.38;70.66
70676;DHT22;59069;52.242;20.900;2024-03-17T03:38:21;5.35;70.67
70676;DHT22;59069;52.242;20.900;2024-03-17T03:40:47;5.35;70.61
70676;DHT22;59069;52.242;20.900;2024-03-17T03:43:13;5.32;70.76
70676;DHT22;59069;52.242;20.900;2024-03-17T03:45:39;5.23;71.13
70676;DHT22;59069;52.242;20.900;2024-03-17T03:48:05;5.23;71.56
70676;DHT22;59069;52.242;20.900;2024-03-17T03:50:31;5.21;71.88
70676;DHT22;59069;52.242;20.900;2024-03-17T03:52:58;5.17;72.09
70676;DHT22;59069;52.242;20.900;2024-03-17T03:55:23;5.16;72.38
70676;DHT22;59069;52.242;20.900;2024-03-17T03:57:49;5.16;72.56
70676;DHT22;59069;52.242;20.900;2024-03-17T04:00:20;5.16;72.56
70676;DHT22;59069;52.242;20.900;2024-03-17T04:02:50;5.16;72.40
70676;DHT22;59069;52.242;20.900;2024-03-17T04:05:16;5.14;72.08
70676;DHT22;59069;52.242;20.900;2024-03-17T04:07:42;5.13;71.83
70676;DHT22;59069;52.242;20.900;2024-03-17T04:10:08;5.13;71.73
70676;DHT22;59069;52.242;20.900;2024-03-17T04:12:34;5.10;71.39
70676;DHT22;59069;52.242;20.900;2024-03-17T04:15:00;5.08;71.00
70676;DHT22;59069;52.242;20.900;2024-03-17T04:17:26;5.11;70.58
70676;DHT22;59069;52.242;20.900;2024-03-17T04:19:53;5.11;70.14
70676;DHT22;59069;52.242;20.900;2024-03-17T04:22:19;5.10;69.73
70676;DHT22;59069;52.242;20.900;2024-03-17T04:24:46;5.10;69.36
70676;DHT22;59069;52.242;20.900;2024-03-17T04:27:12;5.07;69.08
70676;DHT22;59069;52.242;20.900;2024-03-17T04:29:40;5.03;68.86
70676;DHT22;59069;52.242;20.900;2024-03-17T04:32:06;5.04;68.74
70676;DHT22;59069;52.242;20.900;2024-03-17T04:34:32;5.04;68.55
70676;DHT22;59069;52.242;20.900;2024-03-17T04:36:58;5.04;68.42
70676;DHT22;59069;52.242;20.900;2024-03-17T04:39:24;5.07;68.30
70676;DHT22;59069;52.242;20.900;2024-03-17T04:41:50;5.04;68.13
70676;DHT22;59069;52.242;20.900;2024-03-17T04:44:16;5.04;67.95
70676;DHT22;59069;52.242;20.900;2024-03-17T04:46:42;5.00;67.99
70676;DHT22;59069;52.242;20.900;2024-03-17T04:49:07;4.96;68.25
70676;DHT22;59069;52.242;20.900;2024-03-17T04:51:34;4.96;68.65
70676;DHT22;59069;52.242;20.900;2024-03-17T04:54:00;4.94;68.87
70676;DHT22;59069;52.242;20.900;2024-03-17T04:56:25;4.93;68.85
70676;DHT22;59069;52.242;20.900;2024-03-17T04:58:51;4.91;69.11
70676;DHT22;59069;52.242;20.900;2024-03-17T05:01:16;4.93;69.29
70676;DHT22;59069;52.242;20.900;2024-03-17T05:03:42;4.90;69.58
70676;DHT22;59069;52.242;20.900;2024-03-17T05:06:07;4.91;70.05
70676;DHT22;59069;52.242;20.900;2024-03-17T05:08:33;4.90;70.69
70676;DHT22;59069;52.242;20.900;2024-03-17T05:11:00;4.87;71.24
70676;DHT22;59069;52.242;20.900;2024-03-17T05:13:28;4.93;71.67
70676;DHT22;59069;52.242;20.900;2024-03-17T05:15:54;4.93;72.28
70676;DHT22;59069;52.242;20.900;2024-03-17T05:18:19;4.93;72.67
70676;DHT22;59069;52.242;20.900;2024-03-17T05:20:46;4.94;72.94
70676;DHT22;59069;52.242;20.900;2024-03-17T05:23:12;4.94;73.14
70676;DHT22;59069;52.242;20.900;2024-03-17T05:25:39;4.90;73.35
70676;DHT22;59069;52.242;20.900;2024-03-17T05:28:04;4.87;73.70
70676;DHT22;59069;52.242;20.900;2024-03-17T05:30:30;4.83;74.23
70676;DHT22;59069;52.242;20.900;2024-03-17T05:32:56;4.80;74.66
70676;DHT22;59069;52.242;20.900;2024-03-17T05:35:21;4.77;74.80
70676;DHT22;59069;52.242;20.900;2024-03-17T05:37:48;4.81;75.23
70676;DHT22;59069;52.242;20.900;2024-03-17T05:40:14;4.81;75.13
70676;DHT22;59069;52.242;20.900;2024-03-17T05:42:42;4.79;75.04
70676;DHT22;59069;52.242;20.900;2024-03-17T05:45:10;4.80;75.25
70676;DHT22;59069;52.242;20.900;2024-03-17T05:47:38;4.80;75.82
70676;DHT22;59069;52.242;20.900;2024-03-17T05:50:04;4.93;76.15
70676;DHT22;59069;52.242;20.900;2024-03-17T05:52:29;5.01;76.04
70676;DHT22;59069;52.242;20.900;2024-03-17T05:54:55;5.06;75.67
70676;DHT22;59069;52.242;20.900;2024-03-17T05:57:21;5.16;75.17
70676;DHT22;59069;52.242;20.900;2024-03-17T05:59:48;5.17;74.57
70676;DHT22;59069;52.242;20.900;2024-03-17T06:02:13;5.18;74.05
70676;DHT22;59069;52.242;20.900;2024-03-17T06:04:40;5.18;73.72
70676;DHT22;59069;52.242;20.900;2024-03-17T06:07:05;5.20;73.65
70676;DHT22;59069;52.242;20.900;2024-03-17T06:09:31;5.21;73.71
70676;DHT22;59069;52.242;20.900;2024-03-17T06:11:57;5.23;73.12
70676;DHT22;59069;52.242;20.900;2024-03-17T06:14:22;5.28;72.91
70676;DHT22;59069;52.242;20.900;2024-03-17T06:16:47;5.28;72.71
70676;DHT22;59069;52.242;20.900;2024-03-17T06:19:13;5.34;72.59
70676;DHT22;59069;52.242;20.900;2024-03-17T06:21:38;5.39;72.45
70676;DHT22;59069;52.242;20.900;2024-03-17T06:24:04;5.49;72.28
70676;DHT22;59069;52.242;20.900;2024-03-17T06:26:32;5.52;71.92
70676;DHT22;59069;52.242;20.900;2024-03-17T06:29:00;5.63;71.69
70676;DHT22;59069;52.242;20.900;2024-03-17T06:31:25;5.72;71.27
70676;DHT22;59069;52.242;20.900;2024-03-17T06:33:51;5.78;70.61
70676;DHT22;59069;52.242;20.900;2024-03-17T06:36:16;5.82;70.19
70676;DHT22;59069;52.242;20.900;2024-03-17T06:38:43;5.82;69.69
70676;DHT22;59069;52.242;20.900;2024-03-17T06:41:09;5.80;69.51
70676;DHT22;59069;52.242;20.900;2024-03-17T06:43:35;5.82;68.97
70676;DHT22;59069;52.242;20.900;2024-03-17T06:46:00;5.80;68.99
70676;DHT22;59069;52.242;20.900;2024-03-17T06:48:27;5.82;69.04
70676;DHT22;59069;52.242;20.900;2024-03-17T06:50:53;5.89;68.99
70676;DHT22;59069;52.242;20.900;2024-03-17T06:53:23;5.95;68.89
70676;DHT22;59069;52.242;20.900;2024-03-17T06:55:56;6.00;68.65
70676;DHT22;59069;52.242;20.900;2024-03-17T06:58:26;6.03;68.33
70676;DHT22;59069;52.242;20.900;2024-03-17T07:01:00;6.07;67.97
70676;DHT22;59069;52.242;20.900;2024-03-17T07:03:27;6.12;67.93
70676;DHT22;59069;52.242;20.900;2024-03-17T07:05:57;6.14;67.71
70676;DHT22;59069;52.242;20.900;2024-03-17T07:08:23;6.17;67.80
70676;DHT22;59069;52.242;20.900;2024-03-17T07:11:05;6.19;67.48
70676;DHT22;59069;52.242;20.900;2024-03-17T07:13:33;6.21;67.21
70676;DHT22;59069;52.242;20.900;2024-03-17T07:16:03;6.27;67.32
70676;DHT22;59069;52.242;20.900;2024-03-17T07:18:29;6.30;67.32
70676;DHT22;59069;52.242;20.900;2024-03-17T07:21:00;6.36;67.36
70676;DHT22;59069;52.242;20.900;2024-03-17T07:23:26;6.37;67.07
70676;DHT22;59069;52.242;20.900;2024-03-17T07:25:56;6.41;67.05
70676;DHT22;59069;52.242;20.900;2024-03-17T07:28:21;6.40;66.53
70676;DHT22;59069;52.242;20.900;2024-03-17T07:30:48;6.41;66.33
70676;DHT22;59069;52.242;20.900;2024-03-17T07:33:14;6.36;66.31
70676;DHT22;59069;52.242;20.900;2024-03-17T07:35:48;6.36;66.57
70676;DHT22;59069;52.242;20.900;2024-03-17T07:38:14;6.37;66.72
70676;DHT22;59069;52.242;20.900;2024-03-17T07:40:41;6.38;66.62
70676;DHT22;59069;52.242;20.900;2024-03-17T07:43:06;6.40;66.56
70676;DHT22;59069;52.242;20.900;2024-03-17T07:45:31;6.38;66.53
70676;DHT22;59069;52.242;20.900;2024-03-17T07:47:57;6.38;66.39
70676;DHT22;59069;52.242;20.900;2024-03-17T07:50:24;6.36;66.43
70676;DHT22;59069;52.242;20.900;2024-03-17T07:52:49;6.41;66.53
70676;DHT22;59069;52.242;20.900;2024-03-17T07:55:15;6.45;66.64
70676;DHT22;59069;52.242;20.900;2024-03-17T07:57:41;6.48;66.64
70676;DHT22;59069;52.242;20.900;2024-03-17T08:00:07;6.55;66.55
70676;DHT22;59069;52.242;20.900;2024-03-17T08:02:42;6.57;66.58
70676;DHT22;59069;52.242;20.900;2024-03-17T08:05:10;6.64;66.73
70676;DHT22;59069;52.242;20.900;2024-03-17T08:07:35;6.65;66.52
70676;DHT22;59069;52.242;20.900;2024-03-17T08:10:01;6.70;66.38
70676;DHT22;59069;52.242;20.900;2024-03-17T08:12:29;6.74;66.30
70676;DHT22;59069;52.242;20.900;2024-03-17T08:14:54;6.74;66.19
70676;DHT22;59069;52.242;20.900;2024-03-17T08:17:20;6.81;66.31
70676;DHT22;59069;52.242;20.900;2024-03-17T08:19:45;6.87;66.02
70676;DHT22;59069;52.242;20.900;2024-03-17T08:22:10;6.89;65.77
70676;DHT22;59069;52.242;20.900;2024-03-17T08:24:36;6.95;65.83
70676;DHT22;59069;52.242;20.900;2024-03-17T08:27:01;7.01;65.78
70676;DHT22;59069;52.242;20.900;2024-03-17T08:29:27;7.06;65.51
70676;DHT22;59069;52.242;20.900;2024-03-17T08:31:52;7.09;65.34
70676;DHT22;59069;52.242;20.900;2024-03-17T08:34:18;7.09;65.36
70676;DHT22;59069;52.242;20.900;2024-03-17T08:36:43;7.09;65.16
70676;DHT22;59069;52.242;20.900;2024-03-17T08:39:09;7.15;65.20
70676;DHT22;59069;52.242;20.900;2024-03-17T08:41:36;7.16;64.95
70676;DHT22;59069;52.242;20.900;2024-03-17T08:44:01;7.15;64.76
70676;DHT22;59069;52.242;20.900;2024-03-17T08:46:27;7.18;64.80
70676;DHT22;59069;52.242;20.900;2024-03-17T08:48:52;7.23;64.91
70676;DHT22;59069;52.242;20.900;2024-03-17T08:51:18;7.22;64.70
70676;DHT22;59069;52.242;20.900;2024-03-17T08:53:43;7.16;64.83
70676;DHT22;59069;52.242;20.900;2024-03-17T08:56:09;7.11;65.01
70676;DHT22;59069;52.242;20.900;2024-03-17T08:58:35;7.11;65.42
70676;DHT22;59069;52.242;20.900;2024-03-17T09:01:07;7.05;65.37
70676;DHT22;59069;52.242;20.900;2024-03-17T09:03:33;6.91;65.11
70676;DHT22;59069;52.242;20.900;2024-03-17T09:05:59;6.78;65.25
70676;DHT22;59069;52.242;20.900;2024-03-17T09:08:24;6.65;65.77
70676;DHT22;59069;52.242;20.900;2024-03-17T09:10:52;6.57;66.46
70676;DHT22;59069;52.242;20.900;2024-03-17T09:13:19;6.48;67.01
70676;DHT22;59069;52.242;20.900;2024-03-17T09:16:00;6.36;67.59
70676;DHT22;59069;52.242;20.900;2024-03-17T09:18:29;6.21;68.56
70676;DHT22;59069;52.242;20.900;2024-03-17T09:21:05;6.09;69.76
70676;DHT22;59069;52.242;20.900;2024-03-17T09:23:32;5.98;70.80
70676;DHT22;59069;52.242;20.900;2024-03-17T09:26:01;5.92;71.58
70676;DHT22;59069;52.242;20.900;2024-03-17T09:28:28;5.96;72.39
70676;DHT22;59069;52.242;20.900;2024-03-17T09:30:54;6.00;72.83
70676;DHT22;59069;52.242;20.900;2024-03-17T09:33:20;6.12;73.08
70676;DHT22;59069;52.242;20.900;2024-03-17T09:35:56;6.21;72.63
70676;DHT22;59069;52.242;20.900;2024-03-17T09:38:22;6.31;71.90
70676;DHT22;59069;52.242;20.900;2024-03-17T09:40:48;6.34;71.42
70676;DHT22;59069;52.242;20.900;2024-03-17T09:43:16;6.41;71.08
70676;DHT22;59069;52.242;20.900;2024-03-17T09:45:41;6.51;71.09
70676;DHT22;59069;52.242;20.900;2024-03-17T09:48:13;6.64;70.90
70676;DHT22;59069;52.242;20.900;2024-03-17T09:50:39;6.80;70.01
70676;DHT22;59069;52.242;20.900;2024-03-17T09:53:05;6.98;70.23
70676;DHT22;59069;52.242;20.900;2024-03-17T09:55:30;7.16;69.21
70676;DHT22;59069;52.242;20.900;2024-03-17T09:57:56;7.25;68.37
70676;DHT22;59069;52.242;20.900;2024-03-17T10:00:21;7.30;67.97
70676;DHT22;59069;52.242;20.900;2024-03-17T10:02:47;7.25;66.85
70676;DHT22;59069;52.242;20.900;2024-03-17T10:07:46;7.01;65.99
70676;DHT22;59069;52.242;20.900;2024-03-17T10:10:12;6.87;65.73
70676;DHT22;59069;52.242;20.900;2024-03-17T10:12:38;6.67;65.91
70676;DHT22;59069;52.242;20.900;2024-03-17T10:15:03;6.57;66.58
70676;DHT22;59069;52.242;20.900;2024-03-17T10:17:33;6.44;67.04
70676;DHT22;59069;52.242;20.900;2024-03-17T10:22:59;6.33;68.24
70676;DHT22;59069;52.242;20.900;2024-03-17T10:25:26;6.23;68.69
70676;DHT22;59069;52.242;20.900;2024-03-17T10:27:53;6.20;69.10
70676;DHT22;59069;52.242;20.900;2024-03-17T10:30:19;6.19;69.73
70676;DHT22;59069;52.242;20.900;2024-03-17T10:32:45;6.21;69.89
70676;DHT22;59069;52.242;20.900;2024-03-17T10:35:33;6.21;69.97
70676;DHT22;59069;52.242;20.900;2024-03-17T10:38:01;6.27;70.11
70676;DHT22;59069;52.242;20.900;2024-03-17T10:40:28;6.30;70.42
70676;DHT22;59069;52.242;20.900;2024-03-17T10:42:55;6.31;70.48
70676;DHT22;59069;52.242;20.900;2024-03-17T10:45:20;6.37;70.50
70676;DHT22;59069;52.242;20.900;2024-03-17T10:47:49;6.47;70.49
70676;DHT22;59069;52.242;20.900;2024-03-17T10:50:22;6.60;70.41
70676;DHT22;59069;52.242;20.900;2024-03-17T10:52:52;6.72;69.94
70676;DHT22;59069;52.242;20.900;2024-03-17T10:55:25;6.87;69.07
70676;DHT22;59069;52.242;20.900;2024-03-17T10:57:54;6.92;67.90
70676;DHT22;59069;52.242;20.900;2024-03-17T11:00:24;6.93;66.52
70676;DHT22;59069;52.242;20.900;2024-03-17T11:02:51;6.95;66.03
70676;DHT22;59069;52.242;20.900;2024-03-17T11:05:20;6.96;65.70
70676;DHT22;59069;52.242;20.900;2024-03-17T11:07:48;6.95;65.57
70676;DHT22;59069;52.242;20.900;2024-03-17T11:10:26;6.89;65.51
70676;DHT22;59069;52.242;20.900;2024-03-17T11:12:54;6.82;65.54
70676;DHT22;59069;52.242;20.900;2024-03-17T11:20:34;6.74;65.56
70676;DHT22;59069;52.242;20.900;2024-03-17T11:23:00;6.74;65.69
70676;DHT22;59069;52.242;20.900;2024-03-17T11:27:58;6.74;64.42
70676;DHT22;59069;52.242;20.900;2024-03-17T11:49:30;6.24;62.78
70676;DHT22;59069;52.242;20.900;2024-03-17T11:52:03;6.19;62.71
70676;DHT22;59069;52.242;20.900;2024-03-17T11:54:30;6.12;62.97
70676;DHT22;59069;52.242;20.900;2024-03-17T11:57:01;6.09;63.05
70676;DHT22;59069;52.242;20.900;2024-03-17T11:59:27;6.09;63.24
70676;DHT22;59069;52.242;20.900;2024-03-17T12:01:53;6.09;63.25
70676;DHT22;59069;52.242;20.900;2024-03-17T12:04:20;6.09;63.54
70676;DHT22;59069;52.242;20.900;2024-03-17T12:06:50;6.13;63.79
70676;DHT22;59069;52.242;20.900;2024-03-17T12:09:20;6.13;63.47
70676;DHT22;59069;52.242;20.900;2024-03-17T12:11:50;6.13;63.55
70676;DHT22;59069;52.242;20.900;2024-03-17T12:16:55;6.20;63.48
70676;DHT22;59069;52.242;20.900;2024-03-17T12:19:22;6.24;63.51
70676;DHT22;59069;52.242;20.900;2024-03-17T12:21:51;6.30;63.49
70676;DHT22;59069;52.242;20.900;2024-03-17T12:24:21;6.41;63.65
70676;DHT22;59069;52.242;20.900;2024-03-17T12:26:49;6.60;63.70
70676;DHT22;59069;52.242;20.900;2024-03-17T12:31:59;7.15;63.32
70676;DHT22;59069;52.242;20.900;2024-03-17T12:34:26;7.19;61.91
70676;DHT22;59069;52.242;20.900;2024-03-17T12:36:53;7.18;61.09
70676;DHT22;59069;52.242;20.900;2024-03-17T12:39:23;7.08;60.50
70676;DHT22;59069;52.242;20.900;2024-03-17T12:42:08;7.03;61.01
70676;DHT22;59069;52.242;20.900;2024-03-17T12:44:36;7.01;61.30
70676;DHT22;59069;52.242;20.900;2024-03-17T12:47:10;6.98;61.40
70676;DHT22;59069;52.242;20.900;2024-03-17T12:49:47;6.93;61.73
70676;DHT22;59069;52.242;20.900;2024-03-17T12:55:08;6.93;62.56
70676;DHT22;59069;52.242;20.900;2024-03-17T12:58:14;6.98;62.96
70676;DHT22;59069;52.242;20.900;2024-03-17T13:03:25;7.46;63.68
70676;DHT22;59069;52.242;20.900;2024-03-17T13:05:51;7.74;62.73
70676;DHT22;59069;52.242;20.900;2024-03-17T13:08:16;7.99;62.45
70676;DHT22;59069;52.242;20.900;2024-03-17T13:10:42;8.39;61.34
70676;DHT22;59069;52.242;20.900;2024-03-17T13:13:08;8.66;59.52
70676;DHT22;59069;52.242;20.900;2024-03-17T13:15:35;8.57;57.36
70676;DHT22;59069;52.242;20.900;2024-03-17T13:18:04;8.36;56.50
70676;DHT22;59069;52.242;20.900;2024-03-17T13:20:30;8.12;56.36
70676;DHT22;59069;52.242;20.900;2024-03-17T13:22:56;7.84;56.58
70676;DHT22;59069;52.242;20.900;2024-03-17T13:25:24;7.50;57.04
70676;DHT22;59069;52.242;20.900;2024-03-17T13:27:51;7.23;58.20
70676;DHT22;59069;52.242;20.900;2024-03-17T13:30:19;6.99;59.45
70676;DHT22;59069;52.242;20.900;2024-03-17T13:32:46;6.80;60.83
70676;DHT22;59069;52.242;20.900;2024-03-17T13:35:17;6.64;62.26
70676;DHT22;59069;52.242;20.900;2024-03-17T13:37:44;6.47;63.32
70676;DHT22;59069;52.242;20.900;2024-03-17T13:40:10;6.36;63.60
70676;DHT22;59069;52.242;20.900;2024-03-17T13:42:38;6.21;63.10
70676;DHT22;59069;52.242;20.900;2024-03-17T13:45:04;6.10;63.04
70676;DHT22;59069;52.242;20.900;2024-03-17T13:47:31;6.03;63.06
70676;DHT22;59069;52.242;20.900;2024-03-17T13:49:58;5.93;63.30
70676;DHT22;59069;52.242;20.900;2024-03-17T13:52:23;5.88;63.61
70676;DHT22;59069;52.242;20.900;2024-03-17T13:54:49;5.80;63.85
70676;DHT22;59069;52.242;20.900;2024-03-17T13:57:14;5.69;64.56
70676;DHT22;59069;52.242;20.900;2024-03-17T13:59:41;5.63;65.22
70676;DHT22;59069;52.242;20.900;2024-03-17T14:02:12;5.56;66.00
70676;DHT22;59069;52.242;20.900;2024-03-17T14:04:37;5.45;66.98
70676;DHT22;59069;52.242;20.900;2024-03-17T14:07:03;5.27;67.97
70676;DHT22;59069;52.242;20.900;2024-03-17T14:09:30;5.06;69.10
70676;DHT22;59069;52.242;20.900;2024-03-17T14:11:56;4.93;70.20
70676;DHT22;59069;52.242;20.900;2024-03-17T14:14:22;4.79;71.12
70676;DHT22;59069;52.242;20.900;2024-03-17T14:16:48;4.67;71.95
70676;DHT22;59069;52.242;20.900;2024-03-17T14:19:13;4.65;72.64
70676;DHT22;59069;52.242;20.900;2024-03-17T14:21:39;4.60;73.33
70676;DHT22;59069;52.242;20.900;2024-03-17T14:24:04;4.59;73.90
70676;DHT22;59069;52.242;20.900;2024-03-17T14:26:33;4.57;74.33
70676;DHT22;59069;52.242;20.900;2024-03-17T14:28:59;4.53;74.86
70676;DHT22;59069;52.242;20.900;2024-03-17T14:31:25;4.49;75.38
70676;DHT22;59069;52.242;20.900;2024-03-17T14:33:51;4.49;75.84
70676;DHT22;59069;52.242;20.900;2024-03-17T14:36:16;4.49;76.35
70676;DHT22;59069;52.242;20.900;2024-03-17T14:38:43;4.46;76.73
70676;DHT22;59069;52.242;20.900;2024-03-17T14:41:08;4.46;77.08
70676;DHT22;59069;52.242;20.900;2024-03-17T14:43:34;4.42;77.44
70676;DHT22;59069;52.242;20.900;2024-03-17T14:46:04;4.41;77.75
70676;DHT22;59069;52.242;20.900;2024-03-17T14:48:29;4.38;78.17
70676;DHT22;59069;52.242;20.900;2024-03-17T14:50:55;4.34;78.28
70676;DHT22;59069;52.242;20.900;2024-03-17T14:53:20;4.28;78.63
70676;DHT22;59069;52.242;20.900;2024-03-17T14:55:46;4.24;79.08
70676;DHT22;59069;52.242;20.900;2024-03-17T14:58:11;4.19;79.49
70676;DHT22;59069;52.242;20.900;2024-03-17T15:00:37;4.15;79.84
70676;DHT22;59069;52.242;20.900;2024-03-17T15:03:03;4.14;80.22
70676;DHT22;59069;52.242;20.900;2024-03-17T15:05:30;4.11;80.14
70676;DHT22;59069;52.242;20.900;2024-03-17T15:07:56;4.04;80.14
70676;DHT22;59069;52.242;20.900;2024-03-17T15:10:23;3.98;80.24
70676;DHT22;59069;52.242;20.900;2024-03-17T15:12:50;3.94;80.49
70676;DHT22;59069;52.242;20.900;2024-03-17T15:15:16;3.93;80.56
70676;DHT22;59069;52.242;20.900;2024-03-17T15:17:41;3.87;80.71
70676;DHT22;59069;52.242;20.900;2024-03-17T15:20:29;3.85;80.58
70676;DHT22;59069;52.242;20.900;2024-03-17T15:22:54;3.78;80.80
70676;DHT22;59069;52.242;20.900;2024-03-17T15:25:20;3.74;80.84
70676;DHT22;59069;52.242;20.900;2024-03-17T15:27:46;3.71;81.04
70676;DHT22;59069;52.242;20.900;2024-03-17T15:30:15;3.64;81.10
70676;DHT22;59069;52.242;20.900;2024-03-17T15:32:46;3.56;81.30
70676;DHT22;59069;52.242;20.900;2024-03-17T15:35:12;3.54;81.71
70676;DHT22;59069;52.242;20.900;2024-03-17T15:37:41;3.52;81.91
70676;DHT22;59069;52.242;20.900;2024-03-17T15:40:08;3.49;82.11
70676;DHT22;59069;52.242;20.900;2024-03-17T15:42:41;3.42;82.15
70676;DHT22;59069;52.242;20.900;2024-03-17T15:45:07;3.42;82.39
70676;DHT22;59069;52.242;20.900;2024-03-17T15:47:33;3.37;82.26
70676;DHT22;59069;52.242;20.900;2024-03-17T15:49:58;3.32;82.36
70676;DHT22;59069;52.242;20.900;2024-03-17T15:52:24;3.27;82.50
70676;DHT22;59069;52.242;20.900;2024-03-17T15:54:50;3.27;82.80
70676;DHT22;59069;52.242;20.900;2024-03-17T15:57:15;3.27;82.91
70676;DHT22;59069;52.242;20.900;2024-03-17T15:59:40;3.27;82.58
70676;DHT22;59069;52.242;20.900;2024-03-17T16:02:06;3.22;82.44
70676;DHT22;59069;52.242;20.900;2024-03-17T16:04:35;3.15;82.70
70676;DHT22;59069;52.242;20.900;2024-03-17T16:07:02;3.15;82.84
70676;DHT22;59069;52.242;20.900;2024-03-17T16:09:28;3.13;82.94
70676;DHT22;59069;52.242;20.900;2024-03-17T16:11:53;3.15;83.05